createdAt,value
2022-07-29T00:01:19.422Z,15.40
2022-07-29T00:03:47.437Z,15.40
2022-07-29T00:06:15.554Z,15.30
2022-07-29T00:08:43.617Z,15.40
2022-07-29T00:11:11.366Z,15.30
2022-07-29T00:13:39.913Z,15.30
2022-07-29T00:16:07.499Z,15.30
2022-07-29T00:18:35.240Z,15.30
2022-07-29T00:21:06.305Z,15.20
2022-07-29T00:23:36.819Z,15.10
2022-07-29T00:26:04.889Z,15.10
2022-07-29T00:28:32.522Z,15.00
2022-07-29T00:31:00.355Z,15.00
2022-07-29T00:33:28.226Z,14.90
2022-07-29T00:35:58.597Z,14.90
2022-07-29T00:38:26.135Z,14.90
2022-07-29T00:40:54.132Z,14.90
2022-07-29T00:43:21.698Z,14.90
2022-07-29T00:45:54.509Z,14.90
2022-07-29T00:48:22.067Z,14.90
2022-07-29T00:50:51.452Z,14.90
2022-07-29T00:53:19.479Z,14.90
2022-07-29T00:55:49.498Z,14.90
2022-07-29T00:58:30.357Z,14.90
2022-07-29T01:00:59.596Z,14.80
2022-07-29T01:03:27.705Z,14.70
2022-07-29T01:05:59.994Z,14.60
2022-07-29T01:08:28.129Z,14.60
2022-07-29T01:10:57.144Z,14.60
2022-07-29T01:13:29.858Z,14.60
2022-07-29T01:16:08.138Z,14.60
2022-07-29T01:18:39.725Z,14.50
2022-07-29T01:21:29.879Z,14.50
2022-07-29T01:24:31.933Z,14.40
2022-07-29T01:27:20.128Z,14.40
2022-07-29T01:29:56.313Z,14.40
2022-07-29T01:32:29.946Z,14.30
2022-07-29T01:35:09.650Z,14.20
2022-07-29T01:38:10.205Z,14.10
2022-07-29T01:41:07.355Z,14.10
2022-07-29T01:43:47.028Z,14.00
2022-07-29T01:46:25.318Z,14.10
2022-07-29T01:49:03.975Z,14.00
2022-07-29T01:54:32.476Z,14.00
2022-07-29T01:57:11.188Z,14.00
2022-07-29T01:59:41.168Z,14.00
2022-07-29T02:02:11.775Z,14.00
2022-07-29T02:04:41.995Z,14.00
2022-07-29T02:07:14.833Z,14.00
2022-07-29T02:09:44.478Z,13.90
2022-07-29T02:12:13.497Z,13.90
2022-07-29T02:14:49.846Z,13.90
2022-07-29T02:17:24.034Z,13.80
2022-07-29T02:19:53.650Z,13.80
2022-07-29T02:22:22.916Z,13.70
2022-07-29T02:24:53.034Z,13.70
2022-07-29T02:27:21.322Z,13.70
2022-07-29T02:29:53.302Z,13.60
2022-07-29T02:32:23.279Z,13.60
2022-07-29T02:34:53.946Z,13.60
2022-07-29T02:37:22.797Z,13.50
2022-07-29T02:39:59.150Z,13.50
2022-07-29T02:42:29.513Z,13.40
2022-07-29T02:44:58.123Z,13.40
2022-07-29T02:47:41.525Z,13.40
2022-07-29T02:50:26.746Z,13.30
2022-07-29T02:53:00.796Z,13.30
2022-07-29T02:55:36.561Z,13.30
2022-07-29T02:58:29.885Z,13.20
2022-07-29T03:01:10.622Z,13.00
2022-07-29T03:03:42.461Z,12.90
2022-07-29T03:06:28.868Z,12.90
2022-07-29T03:09:02.247Z,12.90
2022-07-29T03:11:45.942Z,12.90
2022-07-29T03:14:22.777Z,13.00
2022-07-29T03:16:52.220Z,12.90
2022-07-29T03:19:21.793Z,13.00
2022-07-29T03:21:49.833Z,13.00
2022-07-29T03:24:29.968Z,13.00
2022-07-29T03:26:58.442Z,12.90
2022-07-29T03:29:34.019Z,12.80
2022-07-29T03:32:08.193Z,12.70
2022-07-29T03:34:37.619Z,12.70
2022-07-29T03:37:05.706Z,12.70
2022-07-29T03:39:38.085Z,12.70
2022-07-29T03:42:09.312Z,12.70
2022-07-29T03:44:38.718Z,12.80
2022-07-29T03:47:08.338Z,12.80
2022-07-29T03:49:39.793Z,12.90
2022-07-29T03:52:10.182Z,12.90
2022-07-29T03:54:37.961Z,12.90
2022-07-29T03:57:07.358Z,13.00
2022-07-29T03:59:36.314Z,13.10
2022-07-29T04:02:06.584Z,13.10
2022-07-29T04:04:36.708Z,13.20
2022-07-29T04:07:05.106Z,13.20
2022-07-29T04:09:32.961Z,13.30
2022-07-29T04:12:03.512Z,13.30
2022-07-29T04:14:33.407Z,13.30
2022-07-29T04:17:02.271Z,13.30
2022-07-29T04:19:30.064Z,13.30
2022-07-29T04:21:59.234Z,13.30
2022-07-29T04:24:27.029Z,13.40
2022-07-29T04:26:54.686Z,13.50
2022-07-29T04:29:23.362Z,13.60
2022-07-29T04:31:51.425Z,13.70
2022-07-29T04:34:19.589Z,13.80
2022-07-29T04:36:49.602Z,13.90
2022-07-29T04:39:23.028Z,14.10
2022-07-29T04:41:52.527Z,14.20
2022-07-29T04:44:26.545Z,14.40
2022-07-29T04:46:58.583Z,14.60
2022-07-29T04:49:27.051Z,14.90
2022-07-29T04:51:55.961Z,15.10
2022-07-29T04:54:23.717Z,15.40
2022-07-29T04:56:52.870Z,15.70
2022-07-29T04:59:20.342Z,16.00
2022-07-29T05:01:47.915Z,16.30
2022-07-29T05:04:18.768Z,16.60
2022-07-29T05:06:47.330Z,17.00
2022-07-29T05:09:15.468Z,17.30
2022-07-29T05:11:44.321Z,17.60
2022-07-29T05:14:12.121Z,18.00
2022-07-29T05:16:41.904Z,18.40
2022-07-29T05:19:13.965Z,18.70
2022-07-29T05:21:42.489Z,19.00
2022-07-29T05:24:10.415Z,19.20
2022-07-29T05:26:37.847Z,19.40
2022-07-29T05:29:08.538Z,19.60
2022-07-29T05:31:56.638Z,19.90
2022-07-29T05:34:24.523Z,20.20
2022-07-29T05:36:52.447Z,20.20
2022-07-29T05:39:20.278Z,20.30
2022-07-29T05:41:51.824Z,20.50
2022-07-29T05:44:19.925Z,20.80
2022-07-29T05:46:47.554Z,21.00
2022-07-29T05:49:26.930Z,21.20
2022-07-29T05:51:55.828Z,21.10
2022-07-29T05:54:24.607Z,21.00
2022-07-29T05:56:51.910Z,20.90
2022-07-29T05:59:19.395Z,21.10
2022-07-29T06:01:47.315Z,21.30
2022-07-29T06:04:15.081Z,21.50
2022-07-29T06:06:43.382Z,21.70
2022-07-29T06:09:14.410Z,22.00
2022-07-29T06:11:41.995Z,22.20
2022-07-29T06:14:09.449Z,22.40
2022-07-29T06:16:37.491Z,22.60
2022-07-29T06:19:05.856Z,22.70
2022-07-29T06:21:33.532Z,22.90
2022-07-29T06:24:03.437Z,23.20
2022-07-29T06:26:33.354Z,23.30
2022-07-29T06:29:07.202Z,23.60
2022-07-29T06:31:35.459Z,23.70
2022-07-29T06:34:03.518Z,23.70
2022-07-29T06:36:31.646Z,23.80
2022-07-29T06:38:59.373Z,24.00
2022-07-29T06:41:27.615Z,24.40
2022-07-29T06:44:07.747Z,24.60
2022-07-29T06:46:38.500Z,24.70
2022-07-29T06:49:07.028Z,24.50
2022-07-29T06:51:36.420Z,24.50
2022-07-29T06:54:06.755Z,24.50
2022-07-29T06:56:40.493Z,24.40
2022-07-29T06:59:09.957Z,24.30
2022-07-29T07:01:43.122Z,24.20
2022-07-29T07:04:11.957Z,24.10
2022-07-29T07:06:40.544Z,24.00
2022-07-29T07:09:08.302Z,23.80
2022-07-29T07:11:35.991Z,23.80
2022-07-29T07:14:12.727Z,23.70
2022-07-29T07:16:40.526Z,23.70
2022-07-29T07:19:09.140Z,23.70
2022-07-29T07:21:37.183Z,23.80
2022-07-29T07:24:05.199Z,23.80
2022-07-29T07:26:32.684Z,24.10
2022-07-29T07:29:02.332Z,24.10
2022-07-29T07:31:29.881Z,24.10
2022-07-29T07:33:58.182Z,24.20
2022-07-29T07:36:25.586Z,24.20
2022-07-29T07:38:54.389Z,24.20
2022-07-29T07:41:23.051Z,24.30
2022-07-29T07:43:50.602Z,24.40
2022-07-29T07:46:18.547Z,24.40
2022-07-29T07:48:46.424Z,24.40
2022-07-29T07:51:14.648Z,24.40
2022-07-29T07:53:43.284Z,24.40
2022-07-29T07:56:12.464Z,24.40
2022-07-29T07:58:45.399Z,24.40
2022-07-29T08:01:13.339Z,24.30
2022-07-29T08:03:41.116Z,24.30
2022-07-29T08:06:08.852Z,24.30
2022-07-29T08:08:36.542Z,24.30
2022-07-29T08:11:09.488Z,24.30
2022-07-29T08:13:39.215Z,24.30
2022-07-29T08:16:16.840Z,24.20
2022-07-29T08:18:47.383Z,24.30
2022-07-29T08:21:17.935Z,24.40
2022-07-29T08:23:52.722Z,24.30
2022-07-29T08:26:25.520Z,24.30
2022-07-29T08:28:52.935Z,24.30
2022-07-29T08:31:20.565Z,24.20
2022-07-29T08:33:48.159Z,24.10
2022-07-29T08:36:15.890Z,24.10
2022-07-29T08:38:45.005Z,24.00
2022-07-29T08:41:12.785Z,23.90
2022-07-29T08:43:46.149Z,23.90
2022-07-29T08:46:13.716Z,23.90
2022-07-29T08:48:43.763Z,23.90
2022-07-29T08:51:16.231Z,23.90
2022-07-29T08:53:47.551Z,23.90
2022-07-29T08:56:19.421Z,23.90
2022-07-29T08:58:52.521Z,24.00
2022-07-29T09:01:35.959Z,23.90
2022-07-29T09:04:20.834Z,24.00
2022-07-29T09:06:53.406Z,24.00
2022-07-29T09:09:21.516Z,24.10
2022-07-29T09:11:49.836Z,24.00
2022-07-29T09:14:20.469Z,23.90
2022-07-29T09:16:56.028Z,23.90
2022-07-29T09:19:30.308Z,23.90
2022-07-29T09:22:03.000Z,23.80
2022-07-29T09:24:45.018Z,23.80
2022-07-29T09:27:24.953Z,23.70
2022-07-29T09:30:30.338Z,23.70
2022-07-29T09:33:02.818Z,23.70
2022-07-29T09:35:32.639Z,23.60
2022-07-29T09:38:12.743Z,23.60
2022-07-29T09:40:40.547Z,23.60
2022-07-29T09:43:15.665Z,23.50
2022-07-29T09:45:43.856Z,23.50
2022-07-29T09:48:23.542Z,23.50
2022-07-29T09:50:52.773Z,23.40
2022-07-29T09:53:35.576Z,23.40
2022-07-29T09:56:03.779Z,23.50
2022-07-29T09:58:37.480Z,23.60
2022-07-29T10:01:05.704Z,23.60
2022-07-29T10:03:33.569Z,23.80
2022-07-29T10:06:10.200Z,24.00
2022-07-29T10:08:39.741Z,24.20
2022-07-29T10:11:18.871Z,24.30
2022-07-29T10:13:49.085Z,24.20
2022-07-29T10:16:19.073Z,24.20
2022-07-29T10:18:48.669Z,24.50
2022-07-29T10:21:22.620Z,24.90
2022-07-29T10:24:03.962Z,24.90
2022-07-29T10:26:32.267Z,24.90
2022-07-29T10:28:59.733Z,25.10
2022-07-29T10:31:38.759Z,25.60
2022-07-29T10:34:49.717Z,26.40
2022-07-29T10:37:58.703Z,27.00
2022-07-29T10:40:54.985Z,27.10
2022-07-29T10:43:37.537Z,27.10
2022-07-29T10:46:07.438Z,27.00
2022-07-29T10:48:36.537Z,27.20
2022-07-29T10:51:07.725Z,27.40
2022-07-29T10:53:57.157Z,27.70
2022-07-29T10:56:27.401Z,28.00
2022-07-29T10:59:20.280Z,28.60
2022-07-29T11:01:56.696Z,29.10
2022-07-29T11:04:45.761Z,29.20
2022-07-29T11:07:16.005Z,29.00
2022-07-29T11:09:47.232Z,29.10
2022-07-29T11:12:39.685Z,28.90
2022-07-29T11:15:28.764Z,29.10
2022-07-29T11:18:00.312Z,29.40
2022-07-29T11:20:37.847Z,29.40
2022-07-29T11:23:35.155Z,29.30
2022-07-29T11:26:14.881Z,28.80
2022-07-29T11:28:56.439Z,28.40
2022-07-29T11:31:43.577Z,28.00
2022-07-29T11:34:34.982Z,27.60
2022-07-29T11:37:15.302Z,27.30
2022-07-29T11:40:01.825Z,27.00
2022-07-29T11:42:32.736Z,26.90
2022-07-29T11:45:41.397Z,26.60
2022-07-29T11:48:31.645Z,26.30
2022-07-29T11:50:59.083Z,25.90
2022-07-29T11:53:28.965Z,25.40
2022-07-29T11:56:02.470Z,25.20
2022-07-29T11:58:33.703Z,24.80
2022-07-29T12:01:04.206Z,24.30
2022-07-29T12:03:36.667Z,24.10
2022-07-29T12:06:15.403Z,23.80
2022-07-29T12:08:47.673Z,23.70
2022-07-29T12:11:23.251Z,23.40
2022-07-29T12:13:56.737Z,23.30
2022-07-29T12:16:29.271Z,23.20
2022-07-29T12:19:04.156Z,23.20
2022-07-29T12:21:56.532Z,23.30
2022-07-29T12:24:26.944Z,23.50
2022-07-29T12:27:00.203Z,23.50
2022-07-29T12:29:35.075Z,23.50
2022-07-29T12:32:05.877Z,23.40
2022-07-29T12:34:42.510Z,23.40
2022-07-29T12:37:12.187Z,23.60
2022-07-29T12:39:40.386Z,23.80
2022-07-29T12:42:18.928Z,23.90
2022-07-29T12:44:52.057Z,23.90
2022-07-29T12:47:21.301Z,23.90
2022-07-29T12:49:51.059Z,24.10
2022-07-29T12:52:35.341Z,24.20
2022-07-29T12:55:04.213Z,24.30
2022-07-29T12:57:33.620Z,24.30
2022-07-29T13:00:16.140Z,24.30
2022-07-29T13:02:44.862Z,24.30
2022-07-29T13:05:14.611Z,24.30
2022-07-29T13:07:55.495Z,24.30
2022-07-29T13:10:27.049Z,24.30
2022-07-29T13:13:11.186Z,24.30
2022-07-29T13:15:44.667Z,24.30
2022-07-29T13:18:31.659Z,24.10
2022-07-29T13:21:11.232Z,23.90
2022-07-29T13:23:39.075Z,23.50
2022-07-29T13:26:11.044Z,23.20
2022-07-29T13:28:39.169Z,23.00
2022-07-29T13:31:08.810Z,22.70
2022-07-29T13:36:18.447Z,22.20
2022-07-29T13:38:46.290Z,22.10
2022-07-29T13:41:14.039Z,22.10
2022-07-29T13:43:41.475Z,22.10
2022-07-29T13:46:09.733Z,22.10
2022-07-29T13:48:37.560Z,22.10
2022-07-29T13:51:05.258Z,22.00
2022-07-29T13:53:34.373Z,22.10
2022-07-29T13:56:02.191Z,22.10
2022-07-29T13:58:30.104Z,22.10
2022-07-29T14:00:59.015Z,22.00
2022-07-29T14:03:26.836Z,21.90
2022-07-29T14:05:56.032Z,21.90
2022-07-29T14:08:23.811Z,21.90
2022-07-29T14:10:52.056Z,21.80
2022-07-29T14:13:25.010Z,21.80
2022-07-29T14:15:53.870Z,21.60
2022-07-29T14:18:21.296Z,21.50
2022-07-29T14:20:48.913Z,21.40
2022-07-29T14:23:16.694Z,21.30
2022-07-29T14:25:50.248Z,21.30
2022-07-29T14:28:19.218Z,21.20
2022-07-29T14:30:47.492Z,21.10
2022-07-29T14:33:15.722Z,21.00
2022-07-29T14:35:43.291Z,21.00
2022-07-29T14:38:11.362Z,20.90
2022-07-29T14:40:39.816Z,20.90
2022-07-29T14:43:07.680Z,20.90
2022-07-29T14:45:35.433Z,20.80
2022-07-29T14:48:03.701Z,20.80
2022-07-29T14:50:32.356Z,20.80
2022-07-29T14:53:02.108Z,20.80
2022-07-29T14:55:30.168Z,20.80
2022-07-29T14:58:08.704Z,20.80
2022-07-29T15:00:39.462Z,20.70
2022-07-29T15:03:10.968Z,20.70
2022-07-29T15:05:39.834Z,20.70
2022-07-29T15:08:09.766Z,20.80
2022-07-29T15:10:37.994Z,20.80
2022-07-29T15:13:05.591Z,20.80
2022-07-29T15:15:33.790Z,20.80
2022-07-29T15:18:01.970Z,20.80
2022-07-29T15:20:29.431Z,20.80
2022-07-29T15:22:58.297Z,20.70
2022-07-29T15:25:28.430Z,20.70
2022-07-29T15:28:01.926Z,20.70
2022-07-29T15:30:33.910Z,20.80
2022-07-29T15:33:04.857Z,20.80
2022-07-29T15:35:33.127Z,20.90
2022-07-29T15:38:01.313Z,20.90
2022-07-29T15:40:29.735Z,21.00
2022-07-29T15:42:58.990Z,21.00
2022-07-29T15:45:27.200Z,21.10
2022-07-29T15:48:00.049Z,21.10
2022-07-29T15:50:27.815Z,21.10
2022-07-29T15:52:56.358Z,21.20
2022-07-29T15:55:25.190Z,21.20
2022-07-29T15:57:56.132Z,21.30
2022-07-29T16:00:26.328Z,21.20
2022-07-29T16:02:54.208Z,21.20
2022-07-29T16:05:22.406Z,21.20
2022-07-29T16:07:50.133Z,21.20
2022-07-29T16:10:18.510Z,21.20
2022-07-29T16:12:48.226Z,21.20
2022-07-29T16:15:16.562Z,21.20
2022-07-29T16:17:44.727Z,21.10
2022-07-29T16:20:13.874Z,21.10
2022-07-29T16:22:41.720Z,21.20
2022-07-29T16:25:10.130Z,21.20
2022-07-29T16:27:40.738Z,21.20
2022-07-29T16:30:12.276Z,21.10
2022-07-29T16:32:41.127Z,21.20
2022-07-29T16:35:09.242Z,21.10
2022-07-29T16:37:37.964Z,21.10
2022-07-29T16:40:07.251Z,21.10
2022-07-29T16:42:47.372Z,21.00
2022-07-29T16:45:21.371Z,21.10
2022-07-29T16:47:49.413Z,21.00
2022-07-29T16:50:17.437Z,21.00
2022-07-29T16:52:45.765Z,21.10
2022-07-29T16:55:13.264Z,21.10
2022-07-29T16:57:43.114Z,21.10
2022-07-29T17:00:11.932Z,21.10
2022-07-29T17:02:39.587Z,21.00
2022-07-29T17:05:12.980Z,21.00
2022-07-29T17:07:41.341Z,21.00
2022-07-29T17:10:11.454Z,21.00
2022-07-29T17:12:40.909Z,21.10
2022-07-29T17:15:11.229Z,21.10
2022-07-29T17:17:56.734Z,21.00
2022-07-29T17:20:25.167Z,21.00
2022-07-29T17:22:52.956Z,20.90
2022-07-29T17:25:21.438Z,20.90
2022-07-29T17:27:51.176Z,20.90
2022-07-29T17:30:19.327Z,20.90
2022-07-29T17:32:51.140Z,20.80
2022-07-29T17:35:37.449Z,20.80
2022-07-29T17:38:05.169Z,20.80
2022-07-29T17:40:32.813Z,20.80
2022-07-29T17:43:00.433Z,20.70
2022-07-29T17:45:48.943Z,20.70
2022-07-29T17:48:16.980Z,20.70
2022-07-29T17:50:45.626Z,20.70
2022-07-29T17:53:15.793Z,20.70
2022-07-29T17:55:46.124Z,20.60
2022-07-29T17:58:13.889Z,20.60
2022-07-29T18:00:42.642Z,20.60
2022-07-29T18:03:10.659Z,20.50
2022-07-29T18:05:38.348Z,20.60
2022-07-29T18:08:06.481Z,20.50
2022-07-29T18:10:34.468Z,20.40
2022-07-29T18:13:04.024Z,20.40
2022-07-29T18:15:34.749Z,20.40
2022-07-29T18:18:02.092Z,20.40
2022-07-29T18:20:30.008Z,20.40
2022-07-29T18:23:01.207Z,20.40
2022-07-29T18:25:30.065Z,20.40
2022-07-29T18:28:00.548Z,20.30
2022-07-29T18:30:29.818Z,20.30
2022-07-29T18:35:50.968Z,20.30
2022-07-29T18:38:19.083Z,20.30
2022-07-29T18:40:48.856Z,20.20
2022-07-29T18:43:16.521Z,20.10
2022-07-29T18:45:44.279Z,19.90
2022-07-29T18:48:13.882Z,19.80
2022-07-29T18:50:42.797Z,19.80
2022-07-29T18:53:11.293Z,19.80
2022-07-29T18:55:40.225Z,19.70
2022-07-29T18:58:09.512Z,19.60
2022-07-29T19:00:37.305Z,19.50
2022-07-29T19:03:05.034Z,19.40
2022-07-29T19:05:33.391Z,19.40
2022-07-29T19:08:04.248Z,19.50
2022-07-29T19:10:32.819Z,19.50
2022-07-29T19:13:01.950Z,19.60
2022-07-29T19:15:30.099Z,19.60
2022-07-29T19:18:01.203Z,19.60
2022-07-29T19:20:30.359Z,19.70
2022-07-29T19:22:58.905Z,19.70
2022-07-29T19:25:26.856Z,19.70
2022-07-29T19:27:55.610Z,19.70
2022-07-29T19:30:23.415Z,19.70
2022-07-29T19:33:03.213Z,19.70
2022-07-29T19:35:32.508Z,19.70
2022-07-29T19:38:05.138Z,19.80
2022-07-29T19:40:33.156Z,19.70
2022-07-29T19:43:01.588Z,19.80
2022-07-29T19:45:30.138Z,19.80
2022-07-29T19:48:01.498Z,19.70
2022-07-29T19:50:29.807Z,19.70
2022-07-29T19:52:58.180Z,19.70
2022-07-29T19:55:26.011Z,19.70
2022-07-29T19:57:54.428Z,19.70
2022-07-29T20:00:24.320Z,19.70
2022-07-29T20:02:52.382Z,19.70
2022-07-29T20:05:20.179Z,19.70
2022-07-29T20:07:48.272Z,19.70
2022-07-29T20:10:17.158Z,19.70
2022-07-29T20:12:48.285Z,19.70
2022-07-29T20:15:20.035Z,19.70
2022-07-29T20:17:47.518Z,19.70
2022-07-29T20:20:16.185Z,19.70
2022-07-29T20:22:46.428Z,19.70
2022-07-29T20:25:16.565Z,19.70
2022-07-29T20:27:44.538Z,19.70
2022-07-29T20:30:15.107Z,19.70
2022-07-29T20:32:45.155Z,19.70
2022-07-29T20:35:14.375Z,19.70
2022-07-29T20:37:55.599Z,19.70
2022-07-29T20:40:28.638Z,19.70
2022-07-29T20:42:57.062Z,19.60
2022-07-29T20:45:25.661Z,19.60
2022-07-29T20:48:01.473Z,19.50
2022-07-29T20:50:29.233Z,19.40
2022-07-29T20:52:57.626Z,19.40
2022-07-29T20:55:25.729Z,19.30
2022-07-29T20:57:53.666Z,19.30
2022-07-29T21:00:21.157Z,19.20
2022-07-29T21:02:49.010Z,19.20
2022-07-29T21:05:16.988Z,19.10
2022-07-29T21:07:44.833Z,19.10
2022-07-29T21:10:13.875Z,19.00
2022-07-29T21:12:42.956Z,19.00
2022-07-29T21:15:14.267Z,19.00
2022-07-29T21:17:59.664Z,19.00
2022-07-29T21:20:27.634Z,19.10
2022-07-29T21:22:58.475Z,19.10
2022-07-29T21:25:28.471Z,19.00
2022-07-29T21:28:14.429Z,19.00
2022-07-29T21:30:42.417Z,19.00
2022-07-29T21:33:10.434Z,18.90
2022-07-29T21:36:10.231Z,18.90
2022-07-29T21:38:25.556Z,18.80
2022-07-29T21:40:54.218Z,18.80
2022-07-29T21:43:22.388Z,18.70
2022-07-29T21:45:53.735Z,18.70
2022-07-29T21:48:22.626Z,18.60
2022-07-29T21:50:51.418Z,18.60
2022-07-29T21:53:22.048Z,18.50
2022-07-29T21:55:51.711Z,18.50
2022-07-29T21:58:22.551Z,18.50
2022-07-29T22:00:49.936Z,18.40
2022-07-29T22:03:18.145Z,18.40
2022-07-29T22:05:46.328Z,18.40
2022-07-29T22:08:13.935Z,18.30
2022-07-29T22:10:41.857Z,18.30
2022-07-29T22:13:13.008Z,18.30
2022-07-29T22:15:45.357Z,18.30
2022-07-29T22:18:20.669Z,18.30
2022-07-29T22:20:50.181Z,18.30
2022-07-29T22:23:17.957Z,18.20
2022-07-29T22:25:45.800Z,18.20
2022-07-29T22:28:13.889Z,18.20
2022-07-29T22:30:41.686Z,18.20
2022-07-29T22:33:09.224Z,18.10
2022-07-29T22:35:48.812Z,18.10
2022-07-29T22:38:18.772Z,18.10
2022-07-29T22:40:47.342Z,18.10
2022-07-29T22:43:19.338Z,18.10
2022-07-29T22:45:47.974Z,18.00
2022-07-29T22:48:17.126Z,18.00
2022-07-29T22:50:44.760Z,18.00
2022-07-29T22:53:12.947Z,18.00
2022-07-29T22:55:40.810Z,18.00
2022-07-29T22:58:08.377Z,18.00
2022-07-29T23:00:35.958Z,18.00
2022-07-29T23:03:03.630Z,18.00
2022-07-29T23:05:31.532Z,18.00
2022-07-29T23:07:59.083Z,17.90
2022-07-29T23:10:27.051Z,17.80
2022-07-29T23:12:55.109Z,17.60
2022-07-29T23:15:24.526Z,17.50
2022-07-29T23:17:54.645Z,17.50
2022-07-29T23:20:23.116Z,17.40
2022-07-29T23:22:51.235Z,17.40
2022-07-29T23:25:20.296Z,17.40
2022-07-29T23:27:48.425Z,17.30
2022-07-29T23:30:17.408Z,17.30
2022-07-29T23:32:45.421Z,17.30
2022-07-29T23:35:13.281Z,17.30
2022-07-29T23:37:43.505Z,17.30
2022-07-29T23:40:14.443Z,17.30
2022-07-29T23:42:43.494Z,17.30
2022-07-29T23:45:13.054Z,17.30
2022-07-29T23:47:41.929Z,17.30
2022-07-29T23:50:14.942Z,17.20
2022-07-29T23:52:43.448Z,17.20
2022-07-29T23:55:37.780Z,17.20
2022-07-29T23:58:00.849Z,17.20
